Green, Kansas
Current Conditions -  °F | °C
As of 8:52 PM on Wednesday 26 Nov 2014 (Local Time) from KMHK Reporting Station
Clear Clear  
Wind Chill: 27°   Ceiling: Unl
Heat Index: 27°   Visibility: 10mi
Dew Point: 20°   Wind: 0mph
Humidity: 75%   Direction: NA
Pressure: 30.42"   Gusts: NA
Location:  39.43°N, 97°W
Report Text: KMHK 270252Z AUTO 00000KT 10SM CLR M03/M07 A3042 RMK AO2 SLP310 T10281067 51032 TSNO
Loading
Personal Weather Stations






























Interactive Weather Map New forecast layout! Learn more

10-Day Weather Forecast

Advertisements
Track Severe Weather on mobile